Time;durP1;ratioP1;P1;durP2;ratioP2;P2;SDS_P1;SDS_P2;PMS_P1;PMS_P2;Temp;Humidity;BMP_temperature;BMP_pressure;BME280_temperature;BME280_humidity;BME280_pressure;Samples;Min_cycle;Max_cycle;Signal;HPM_P1;HPM_P2
2021/05/04 00:01:34;;;;;;;3.22;2.63;;;3.60;76.20;;;;;;4966700;28;20118;-75
2021/05/04 00:03:59;;;;;;;4.50;2.38;;;3.60;77.10;;;;;;4962934;28;20039;-75
2021/05/04 00:06:25;;;;;;;3.38;2.55;;;3.50;76.60;;;;;;4968336;28;20561;-75
2021/05/04 00:08:51;;;;;;;2.78;2.45;;;3.40;77.10;;;;;;4960322;28;20122;-75
2021/05/04 00:11:16;;;;;;;3.00;2.65;;;3.40;77.20;;;;;;4948956;28;20138;-74
2021/05/04 00:13:42;;;;;;;2.90;2.65;;;3.40;77.20;;;;;;4965287;28;20035;-76
2021/05/04 00:16:08;;;;;;;3.22;2.33;;;3.40;77.40;;;;;;4962555;28;20031;-75
2021/05/04 00:18:34;;;;;;;3.17;2.88;;;3.40;78.30;;;;;;4960678;28;20021;-75
2021/05/04 00:20:59;;;;;;;7.57;3.45;;;3.30;78.40;;;;;;4963384;28;20114;-75
2021/05/04 00:23:25;;;;;;;2.58;2.38;;;3.20;78.60;;;;;;4963484;28;20474;-75
2021/05/04 00:25:51;;;;;;;3.30;3.00;;;3.10;78.50;;;;;;4963234;28;20037;-75
2021/05/04 00:28:17;;;;;;;3.03;2.72;;;3.10;78.30;;;;;;4969223;28;20027;-75
2021/05/04 00:30:43;;;;;;;3.15;2.58;;;3.10;78.70;;;;;;4963076;28;20035;-75
2021/05/04 00:33:08;;;;;;;4.35;2.83;;;3.10;79.20;;;;;;4959178;28;20665;-75
2021/05/04 00:35:34;;;;;;;4.93;3.25;;;3.00;79.30;;;;;;4964181;28;20088;-74
2021/05/04 00:37:59;;;;;;;3.08;2.63;;;3.00;79.10;;;;;;4960799;28;20035;-75
2021/05/04 00:40:25;;;;;;;5.50;2.85;;;3.00;79.00;;;;;;4968954;28;20050;-75
2021/05/04 00:42:51;;;;;;;4.68;3.35;;;3.00;79.00;;;;;;4957617;28;20073;-75
2021/05/04 00:45:16;;;;;;;3.22;2.63;;;3.00;79.90;;;;;;4968539;28;20651;-75
2021/05/04 00:47:42;;;;;;;6.00;2.95;;;3.00;79.30;;;;;;4971171;28;20034;-75
2021/05/04 00:50:08;;;;;;;3.55;2.72;;;2.90;79.80;;;;;;4966436;28;20034;-75
2021/05/04 00:52:35;;;;;;;5.63;2.95;;;2.90;79.80;;;;;;4967258;28;20150;-75
2021/05/04 00:55:03;;;;;;;4.03;2.97;;;2.90;79.80;;;;;;4967883;28;20081;-75
2021/05/04 00:57:30;;;;;;;;;;;2.90;80.00;;;;;;4967207;28;20046;-75
2021/05/04 00:59:57;;;;;;;2.45;2.25;;;2.80;79.50;;;;;;4968771;28;20415;-75
2021/05/04 01:02:23;;;;;;;4.18;2.58;;;2.70;79.00;;;;;;4972803;28;20060;-74
2021/05/04 01:04:49;;;;;;;3.78;3.28;;;2.70;79.90;;;;;;4967020;28;20030;-75
2021/05/04 01:07:14;;;;;;;3.72;2.95;;;2.60;80.60;;;;;;4968471;28;20034;-75
2021/05/04 01:09:40;;;;;;;4.10;3.10;;;2.50;81.40;;;;;;4968165;28;20033;-75
2021/05/04 01:12:06;;;;;;;5.28;2.85;;;2.60;81.10;;;;;;4964934;28;20070;-75
2021/05/04 01:14:32;;;;;;;5.97;3.17;;;2.60;79.40;;;;;;4982448;28;20114;-75
2021/05/04 01:16:57;;;;;;;3.88;3.13;;;2.60;80.20;;;;;;4968116;28;20122;-75
2021/05/04 01:19:24;;;;;;;4.88;3.03;;;2.70;80.80;;;;;;4971126;28;20035;-75
2021/05/04 01:21:50;;;;;;;7.35;2.80;;;2.60;81.20;;;;;;4969151;28;20033;-75
2021/05/04 01:24:16;;;;;;;4.05;3.15;;;2.70;80.10;;;;;;4960219;28;20023;-75
2021/05/04 01:26:47;;;;;;;4.43;3.08;;;2.60;81.40;;;;;;4967371;28;20031;-75
2021/05/04 01:29:14;;;;;;;4.03;3.63;;;2.60;81.90;;;;;;4964708;28;20529;-76
2021/05/04 01:31:41;;;;;;;3.53;3.22;;;2.50;82.00;;;;;;4955888;28;20692;-75
2021/05/04 01:34:07;;;;;;;3.97;2.80;;;2.50;80.30;;;;;;4962806;28;20031;-75
2021/05/04 01:36:34;;;;;;;2.67;2.42;;;2.50;79.70;;;;;;4966688;28;20054;-75
2021/05/04 01:39:03;;;;;;;4.32;3.17;;;2.50;79.70;;;;;;4968007;28;20018;-75
2021/05/04 01:41:29;;;;;;;6.53;3.95;;;2.50;80.30;;;;;;4963955;28;20417;-74
2021/05/04 01:43:57;;;;;;;3.67;3.38;;;2.50;81.10;;;;;;4981008;28;20027;-75
2021/05/04 01:46:22;;;;;;;4.68;2.67;;;2.50;81.70;;;;;;4967934;28;20034;-75
2021/05/04 01:48:48;;;;;;;3.80;3.03;;;2.50;80.50;;;;;;4963323;28;20081;-75
2021/05/04 01:51:13;;;;;;;3.50;3.00;;;2.50;80.80;;;;;;4968871;28;20062;-75
2021/05/04 01:53:39;;;;;;;5.20;3.75;;;2.50;81.30;;;;;;4966882;28;20440;-75
2021/05/04 01:56:05;;;;;;;3.08;2.83;;;2.50;82.10;;;;;;4964600;28;20118;-76
2021/05/04 01:58:30;;;;;;;5.05;3.35;;;2.50;81.10;;;;;;4960697;28;20474;-76
2021/05/04 02:00:56;;;;;;;3.13;2.63;;;2.50;80.10;;;;;;4965099;28;20522;-75
2021/05/04 02:03:22;;;;;;;4.13;3.10;;;2.40;80.10;;;;;;4968626;28;20137;-75
2021/05/04 02:05:47;;;;;;;3.80;3.40;;;2.40;80.60;;;;;;4962154;28;20042;-75
2021/05/04 02:08:13;;;;;;;3.63;2.63;;;2.40;81.60;;;;;;4965805;28;20081;-75
2021/05/04 02:10:39;;;;;;;3.42;2.72;;;2.40;81.30;;;;;;4959851;28;20033;-77
2021/05/04 02:13:05;;;;;;;3.55;3.03;;;2.40;80.50;;;;;;4957362;28;20034;-75
2021/05/04 02:15:31;;;;;;;2.78;2.38;;;2.30;81.00;;;;;;4967680;28;20027;-75
2021/05/04 02:17:57;;;;;;;3.05;2.80;;;2.40;80.90;;;;;;4962184;28;20632;-75
2021/05/04 02:20:23;;;;;;;4.28;3.00;;;2.30;81.00;;;;;;4968409;28;20054;-75
2021/05/04 02:22:49;;;;;;;4.03;3.03;;;2.40;80.80;;;;;;4961650;28;20659;-75
2021/05/04 02:25:14;;;;;;;2.50;2.30;;;2.40;80.70;;;;;;4964366;28;20058;-75
2021/05/04 02:27:40;;;;;;;2.72;2.47;;;2.20;79.60;;;;;;4963943;28;20402;-75
2021/05/04 02:30:06;;;;;;;3.40;3.10;;;2.20;80.30;;;;;;4965649;28;20035;-75
2021/05/04 02:32:35;;;;;;;3.88;3.22;;;2.30;81.30;;;;;;4967963;28;20027;-75
2021/05/04 02:35:02;;;;;;;4.18;3.20;;;2.30;82.50;;;;;;4970764;28;20498;-75
2021/05/04 02:37:28;;;;;;;8.60;4.03;;;2.30;81.70;;;;;;4964094;28;20543;-75
2021/05/04 02:39:53;;;;;;;4.22;3.75;;;2.30;83.30;;;;;;4974463;28;20090;-75
2021/05/04 02:42:19;;;;;;;3.92;3.28;;;2.20;83.00;;;;;;4967335;28;20030;-75
2021/05/04 02:44:44;;;;;;;8.82;3.40;;;2.30;83.00;;;;;;4965700;28;20054;-75
2021/05/04 02:47:10;;;;;;;4.40;3.45;;;2.30;82.60;;;;;;4964513;28;20033;-74
2021/05/04 02:49:36;;;;;;;5.95;4.00;;;2.30;83.20;;;;;;4967004;28;20454;-75
2021/05/04 02:52:03;;;;;;;5.03;3.03;;;2.30;82.00;;;;;;4960198;28;20098;-75
2021/05/04 02:54:28;;;;;;;4.03;3.35;;;2.20;80.20;;;;;;4960628;28;20015;-75
2021/05/04 02:56:54;;;;;;;4.20;3.53;;;2.20;81.30;;;;;;4964856;28;20031;-75
2021/05/04 02:59:20;;;;;;;6.72;3.67;;;2.30;82.00;;;;;;4966129;28;20041;-75
2021/05/04 03:01:45;;;;;;;5.25;3.20;;;2.30;82.00;;;;;;4964926;28;20107;-75
2021/05/04 03:04:11;;;;;;;3.53;3.17;;;2.40;82.60;;;;;;4964532;28;20031;-75
2021/05/04 03:06:37;;;;;;;4.55;3.47;;;2.40;83.00;;;;;;4960910;28;20034;-74
2021/05/04 03:09:03;;;;;;;3.55;3.10;;;2.40;80.60;;;;;;4963309;28;20960;-75
2021/05/04 03:11:29;;;;;;;3.60;2.88;;;2.20;82.10;;;;;;4964805;28;20035;-75
2021/05/04 03:13:55;;;;;;;4.40;3.42;;;2.30;81.40;;;;;;4971146;28;20034;-75
2021/05/04 03:16:20;;;;;;;4.13;3.47;;;2.20;81.50;;;;;;4963136;28;20034;-75
2021/05/04 03:18:46;;;;;;;5.05;3.00;;;2.10;80.00;;;;;;4964683;28;20011;-75
2021/05/04 03:21:11;;;;;;;3.38;3.08;;;2.10;81.50;;;;;;4970940;28;20285;-75
2021/05/04 03:23:37;;;;;;;5.82;3.80;;;2.10;80.60;;;;;;4961792;28;20031;-75
2021/05/04 03:26:03;;;;;;;8.02;3.67;;;2.10;79.30;;;;;;4964820;28;20068;-75
2021/05/04 03:28:28;;;;;;;5.13;3.60;;;2.10;79.60;;;;;;4957948;28;20529;-75
2021/05/04 03:30:54;;;;;;;3.92;3.17;;;2.00;81.00;;;;;;4960017;28;20185;-75
2021/05/04 03:33:20;;;;;;;5.43;4.40;;;1.90;83.40;;;;;;4967282;28;20058;-75
2021/05/04 03:35:45;;;;;;;4.05;3.65;;;1.90;83.00;;;;;;4963124;28;20022;-75
2021/05/04 03:38:11;;;;;;;4.03;3.63;;;2.00;84.50;;;;;;4958558;28;20023;-75
2021/05/04 03:40:37;;;;;;;6.18;4.03;;;2.00;84.30;;;;;;4967115;28;20054;-75
2021/05/04 03:43:03;;;;;;;7.93;4.72;;;2.10;84.30;;;;;;4968190;28;20253;-75
2021/05/04 03:45:29;;;;;;;5.35;4.15;;;2.10;84.30;;;;;;4967819;28;20019;-76
2021/05/04 03:47:56;;;;;;;4.68;3.42;;;2.00;85.10;;;;;;4958853;28;20054;-75
2021/05/04 03:50:23;;;;;;;5.93;3.88;;;2.00;86.70;;;;;;4965214;28;20019;-75
2021/05/04 03:52:51;;;;;;;3.95;3.30;;;2.00;85.50;;;;;;4961983;28;20030;-75
2021/05/04 03:55:18;;;;;;;8.38;4.03;;;2.10;84.60;;;;;;4958028;28;20077;-75
2021/05/04 03:57:44;;;;;;;4.78;4.10;;;2.10;84.80;;;;;;4964509;28;20078;-75
2021/05/04 04:00:11;;;;;;;7.60;3.38;;;2.10;83.80;;;;;;4960213;28;20023;-75
2021/05/04 04:02:37;;;;;;;5.10;3.92;;;2.00;83.60;;;;;;4979859;28;20053;-75
2021/05/04 04:05:04;;;;;;;4.28;3.20;;;2.10;82.90;;;;;;4968472;28;20027;-75
2021/05/04 04:07:30;;;;;;;4.85;2.92;;;2.10;82.60;;;;;;4964840;28;20039;-75
2021/05/04 04:09:56;;;;;;;3.63;3.28;;;2.00;81.70;;;;;;4962947;28;21905;-75
2021/05/04 04:12:23;;;;;;;4.70;3.70;;;2.00;82.30;;;;;;4959133;28;20933;-75
2021/05/04 04:14:50;;;;;;;5.32;3.70;;;2.00;82.50;;;;;;4978109;28;20027;-75
2021/05/04 04:17:15;;;;;;;7.55;4.00;;;2.00;83.60;;;;;;4962419;28;20030;-75
2021/05/04 04:19:41;;;;;;;6.55;4.15;;;2.00;84.30;;;;;;4965750;28;20035;-75
2021/05/04 04:22:06;;;;;;;6.18;4.30;;;2.00;84.50;;;;;;4968608;28;20054;-76
2021/05/04 04:24:32;;;;;;;3.47;3.17;;;2.00;84.30;;;;;;4965368;28;20034;-75
2021/05/04 04:26:58;;;;;;;3.80;3.42;;;2.00;84.20;;;;;;4963068;28;20577;-76
2021/05/04 04:29:24;;;;;;;6.72;3.72;;;2.00;83.90;;;;;;4972133;28;20022;-75
2021/05/04 04:31:49;;;;;;;4.20;3.53;;;2.00;83.60;;;;;;4961502;28;20038;-75
2021/05/04 04:34:15;;;;;;;7.43;3.83;;;2.00;83.50;;;;;;4970202;28;20027;-75
2021/05/04 04:36:41;;;;;;;3.85;3.30;;;2.00;84.10;;;;;;4963457;28;20133;-75
2021/05/04 04:39:07;;;;;;;4.53;3.53;;;2.00;83.90;;;;;;4968745;28;20034;-75
2021/05/04 04:41:34;;;;;;;6.93;3.95;;;2.10;84.30;;;;;;4965382;28;20050;-76
2021/05/04 04:44:00;;;;;;;4.57;3.30;;;2.10;84.60;;;;;;4964005;28;20161;-75
2021/05/04 04:46:39;;;;;;;4.55;3.63;;;2.20;84.90;;;;;;4968483;28;20050;-75
2021/05/04 04:49:05;;;;;;;4.95;3.53;;;2.20;84.70;;;;;;4965633;28;20029;-75
2021/05/04 04:51:31;;;;;;;4.65;4.03;;;2.30;87.00;;;;;;4967544;28;20027;-75
2021/05/04 04:53:57;;;;;;;7.85;5.00;;;2.40;87.60;;;;;;4966957;28;20078;-75
2021/05/04 04:56:22;;;;;;;5.28;4.70;;;2.60;88.10;;;;;;4968226;28;20031;-75
2021/05/04 04:58:48;;;;;;;8.05;4.82;;;2.80;88.40;;;;;;4965077;28;20469;-75
2021/05/04 05:01:13;;;;;;;5.57;3.67;;;3.00;87.80;;;;;;4968126;28;20035;-75
2021/05/04 05:03:39;;;;;;;5.75;3.90;;;2.90;84.80;;;;;;4969817;28;20083;-75
2021/05/04 05:06:05;;;;;;;3.80;3.40;;;2.90;83.60;;;;;;4962205;28;20630;-75
2021/05/04 05:08:30;;;;;;;5.85;3.97;;;2.80;83.30;;;;;;4968030;28;20105;-75
2021/05/04 05:10:56;;;;;;;4.72;3.95;;;2.90;84.50;;;;;;4960078;28;20122;-75
2021/05/04 05:13:21;;;;;;;5.30;4.22;;;3.10;86.30;;;;;;4962683;28;20018;-75
2021/05/04 05:15:47;;;;;;;10.73;4.30;;;3.20;85.80;;;;;;4962645;28;20066;-75
2021/05/04 05:18:12;;;;;;;5.68;3.67;;;3.40;86.90;;;;;;4967209;28;20596;-75
2021/05/04 05:20:38;;;;;;;5.20;3.47;;;3.60;88.00;;;;;;4961487;28;20047;-75
2021/05/04 05:23:04;;;;;;;12.55;3.08;;;3.80;87.50;;;;;;4971883;28;20500;-75
2021/05/04 05:25:30;;;;;;;4.28;3.47;;;4.10;87.40;;;;;;4964917;28;20034;-77
2021/05/04 05:27:55;;;;;;;7.05;3.72;;;4.40;87.30;;;;;;4959642;28;20683;-75
2021/05/04 05:30:21;;;;;;;3.00;2.70;;;4.50;85.80;;;;;;4956680;28;20026;-76
2021/05/04 05:32:47;;;;;;;3.17;2.63;;;4.70;84.70;;;;;;4959448;28;20022;-75
2021/05/04 05:35:13;;;;;;;4.10;3.00;;;4.90;84.10;;;;;;4963872;28;20113;-75
2021/05/04 05:37:39;;;;;;;4.68;3.13;;;5.10;83.30;;;;;;4970197;28;20035;-75
2021/05/04 05:40:05;;;;;;;4.47;3.00;;;5.20;82.20;;;;;;4965621;28;20083;-75
2021/05/04 05:42:30;;;;;;;4.68;3.08;;;5.30;81.70;;;;;;4971459;28;20519;-75
2021/05/04 05:44:56;;;;;;;5.15;3.17;;;5.40;81.60;;;;;;4968446;28;20113;-75
2021/05/04 05:47:22;;;;;;;3.17;2.83;;;5.60;80.60;;;;;;4960742;28;20385;-75
2021/05/04 05:49:47;;;;;;;5.22;2.78;;;5.70;80.30;;;;;;4963520;28;20169;-75
2021/05/04 05:52:13;;;;;;;3.90;3.30;;;5.80;79.10;;;;;;4959284;28;20055;-75
2021/05/04 05:54:39;;;;;;;3.15;2.63;;;5.90;78.90;;;;;;4963318;28;20022;-75
2021/05/04 05:57:05;;;;;;;4.50;3.20;;;6.00;79.10;;;;;;4958115;28;20078;-75
2021/05/04 05:59:30;;;;;;;3.20;2.88;;;6.20;78.40;;;;;;4955126;28;20038;-75
2021/05/04 06:01:56;;;;;;;4.60;2.90;;;6.30;77.90;;;;;;4955962;28;20514;-75
2021/05/04 06:04:22;;;;;;;3.25;2.75;;;6.40;78.30;;;;;;4953980;28;20509;-76
2021/05/04 06:06:47;;;;;;;3.38;2.90;;;6.50;77.50;;;;;;4954257;28;20100;-74
2021/05/04 06:09:13;;;;;;;3.90;2.70;;;6.70;77.20;;;;;;4958226;28;20069;-75
2021/05/04 06:11:39;;;;;;;2.30;2.10;;;6.80;77.50;;;;;;4957654;28;20395;-75
2021/05/04 06:14:04;;;;;;;3.47;2.25;;;6.90;76.50;;;;;;4954171;28;20129;-75
2021/05/04 06:16:30;;;;;;;2.50;2.30;;;7.10;74.80;;;;;;4954784;28;20437;-76
2021/05/04 06:18:56;;;;;;;2.35;2.15;;;7.20;75.50;;;;;;4953743;28;20581;-75
2021/05/04 06:21:21;;;;;;;3.38;2.47;;;7.30;74.00;;;;;;4951442;28;20113;-75
2021/05/04 06:23:47;;;;;;;3.10;2.63;;;7.50;73.70;;;;;;4953484;28;20553;-75
2021/05/04 06:26:13;;;;;;;3.97;3.20;;;7.60;73.00;;;;;;4966379;28;20606;-75
2021/05/04 06:28:40;;;;;;;3.05;2.72;;;7.80;72.80;;;;;;4966959;28;20030;-75
2021/05/04 06:31:07;;;;;;;2.50;2.30;;;7.90;71.50;;;;;;4969422;28;20109;-75
2021/05/04 06:33:32;;;;;;;2.63;2.42;;;8.00;71.30;;;;;;4965516;28;20085;-75
2021/05/04 06:35:58;;;;;;;4.13;2.95;;;8.10;72.50;;;;;;4957806;28;20023;-75
2021/05/04 06:38:24;;;;;;;3.35;2.50;;;8.30;71.40;;;;;;4961537;28;20687;-75
2021/05/04 06:40:51;;;;;;;5.20;2.58;;;8.40;71.30;;;;;;4968111;28;20114;-75
2021/05/04 06:43:17;;;;;;;3.05;2.60;;;8.50;71.00;;;;;;4969220;28;20041;-74
2021/05/04 06:45:43;;;;;;;3.15;2.70;;;8.70;69.80;;;;;;4965010;28;20089;-75
2021/05/04 06:48:09;;;;;;;2.88;2.50;;;8.80;70.40;;;;;;4968582;28;20023;-75
2021/05/04 06:50:35;;;;;;;2.20;2.00;;;9.00;67.60;;;;;;4966810;28;20038;-75
2021/05/04 06:53:01;;;;;;;3.08;2.30;;;9.10;67.30;;;;;;4965764;28;20125;-75
2021/05/04 06:55:27;;;;;;;2.53;2.33;;;9.20;66.50;;;;;;4965354;28;20502;-75
2021/05/04 06:57:52;;;;;;;4.97;2.33;;;9.30;66.90;;;;;;4967060;28;20035;-75
2021/05/04 07:00:20;;;;;;;2.35;2.13;;;9.40;67.00;;;;;;4965334;28;20023;-75
2021/05/04 07:02:46;;;;;;;2.70;2.50;;;9.50;64.80;;;;;;4957906;28;20481;-75
2021/05/04 07:05:12;;;;;;;2.22;2.10;;;9.50;64.50;;;;;;4962921;28;20038;-74
2021/05/04 07:07:37;;;;;;;2.47;2.28;;;9.60;65.00;;;;;;4965092;28;20098;-75
2021/05/04 07:10:03;;;;;;;2.85;2.30;;;9.70;63.30;;;;;;4968304;28;20049;-75
2021/05/04 07:12:29;;;;;;;2.40;2.10;;;9.70;63.70;;;;;;4970110;28;20560;-75
2021/05/04 07:14:55;;;;;;;2.72;2.30;;;9.90;63.10;;;;;;4965784;28;20043;-75
2021/05/04 07:17:22;;;;;;;2.70;2.20;;;9.90;63.70;;;;;;4964472;28;20491;-75
2021/05/04 07:19:48;;;;;;;2.22;2.05;;;10.00;63.70;;;;;;4966805;28;20054;-75
2021/05/04 07:22:13;;;;;;;2.53;2.33;;;10.10;63.90;;;;;;4965029;28;20064;-75
2021/05/04 07:24:39;;;;;;;2.35;2.15;;;10.30;61.50;;;;;;4968522;28;20537;-75
2021/05/04 07:27:09;;;;;;;3.13;2.35;;;10.40;61.10;;;;;;4961279;28;20035;-75
2021/05/04 07:29:37;;;;;;;2.50;2.30;;;10.50;61.30;;;;;;4965209;28;20190;-75
2021/05/04 07:32:04;;;;;;;2.20;1.92;;;10.70;60.70;;;;;;4959843;28;20043;-74
2021/05/04 07:34:30;;;;;;;2.40;2.20;;;10.80;60.80;;;;;;4959539;28;20042;-75
2021/05/04 07:36:55;;;;;;;3.58;2.03;;;10.90;60.20;;;;;;4963219;28;20035;-75
2021/05/04 07:39:21;;;;;;;3.95;2.22;;;11.00;58.80;;;;;;4973079;28;20106;-75
2021/05/04 07:41:47;;;;;;;2.15;2.03;;;11.10;59.20;;;;;;4967068;28;20050;-75
2021/05/04 07:44:13;;;;;;;2.60;2.40;;;11.10;59.50;;;;;;4972171;28;20064;-75
2021/05/04 07:46:38;;;;;;;2.10;1.90;;;11.20;58.80;;;;;;4960040;28;20027;-75
2021/05/04 07:49:11;;;;;;;2.72;2.30;;;11.30;58.20;;;;;;4967031;28;21361;-76
2021/05/04 07:51:37;;;;;;;2.72;2.35;;;11.30;58.70;;;;;;4960265;28;20122;-75
2021/05/04 07:54:04;;;;;;;3.33;2.50;;;11.30;59.40;;;;;;4987939;28;20030;-75
2021/05/04 07:56:29;;;;;;;2.22;2.08;;;11.40;59.40;;;;;;4965827;28;20023;-75
2021/05/04 07:58:55;;;;;;;3.42;2.40;;;11.40;61.10;;;;;;4970843;28;20015;-75
2021/05/04 08:01:20;;;;;;;2.47;2.28;;;11.60;57.80;;;;;;4967843;28;20038;-76
2021/05/04 08:03:46;;;;;;;2.42;2.22;;;11.60;59.50;;;;;;4987104;28;20027;-75
2021/05/04 08:06:12;;;;;;;2.63;2.08;;;11.70;57.00;;;;;;4964433;28;20453;-75
2021/05/04 08:08:37;;;;;;;6.10;2.20;;;11.80;56.10;;;;;;4971231;28;20449;-76
2021/05/04 08:11:03;;;;;;;4.45;2.30;;;11.80;57.30;;;;;;4971615;28;20057;-75
2021/05/04 08:13:29;;;;;;;2.38;2.17;;;11.90;57.40;;;;;;4970349;28;20066;-75
2021/05/04 08:15:55;;;;;;;3.00;2.17;;;12.00;57.10;;;;;;4966872;28;20664;-75
2021/05/04 08:18:21;;;;;;;2.60;2.20;;;12.10;56.20;;;;;;4967301;28;20034;-75
2021/05/04 08:20:48;;;;;;;1.85;1.73;;;12.10;55.90;;;;;;4969279;28;20108;-75
2021/05/04 08:23:15;;;;;;;2.53;2.30;;;12.20;54.60;;;;;;4969747;28;20045;-75
2021/05/04 08:25:41;;;;;;;3.10;2.30;;;12.30;54.00;;;;;;4961395;28;20042;-75
2021/05/04 08:28:07;;;;;;;2.97;2.33;;;12.40;55.00;;;;;;4964677;28;20030;-75
2021/05/04 08:30:33;;;;;;;2.75;2.00;;;12.50;53.30;;;;;;4968833;28;20109;-75
2021/05/04 08:32:59;;;;;;;2.47;2.00;;;12.60;53.80;;;;;;4967231;28;20085;-75
2021/05/04 08:35:26;;;;;;;3.60;2.35;;;12.70;55.10;;;;;;4965664;28;20042;-75
2021/05/04 08:37:53;;;;;;;2.50;2.30;;;12.80;57.00;;;;;;4973928;28;20014;-75
2021/05/04 08:40:19;;;;;;;2.90;2.08;;;12.90;51.90;;;;;;4970527;28;20034;-75
2021/05/04 08:42:45;;;;;;;2.20;2.00;;;12.90;53.10;;;;;;4964062;28;20035;-75
2021/05/04 08:45:13;;;;;;;2.03;1.92;;;13.00;53.90;;;;;;4966216;28;20031;-75
2021/05/04 08:47:38;;;;;;;2.05;1.70;;;13.10;51.70;;;;;;4965157;28;20027;-75
2021/05/04 08:50:06;;;;;;;4.78;2.40;;;13.10;51.90;;;;;;4972576;28;20540;-75
2021/05/04 08:52:31;;;;;;;10.30;2.17;;;13.20;53.10;;;;;;4966880;28;20027;-75
2021/05/04 08:54:57;;;;;;;2.00;1.73;;;13.20;50.00;;;;;;4959361;28;20717;-75
2021/05/04 08:57:23;;;;;;;2.05;1.90;;;13.30;49.90;;;;;;4965254;28;20157;-75
2021/05/04 08:59:48;;;;;;;2.40;2.03;;;13.30;50.90;;;;;;4968264;28;20019;-75
2021/05/04 09:02:15;;;;;;;2.45;1.90;;;13.40;51.90;;;;;;4969162;28;20461;-77
2021/05/04 09:04:49;;;;;;;2.13;2.03;;;13.50;48.00;;;;;;4965819;28;20033;-76
2021/05/04 09:07:25;;;;;;;1.80;1.70;;;13.60;50.60;;;;;;4965923;28;20136;-74
2021/05/04 09:13:06;;;;;;;1.70;1.60;;;13.70;49.40;;;;;;4969696;28;20646;-75
2021/05/04 09:21:11;;;;;;;2.05;1.85;;;13.80;47.30;;;;;;4968055;28;20023;-75
2021/05/04 09:23:41;;;;;;;3.38;1.50;;;13.90;48.20;;;;;;4968266;28;20109;-74
2021/05/04 09:26:20;;;;;;;2.63;1.80;;;13.80;50.60;;;;;;4969062;28;20073;-74
2021/05/04 09:28:52;;;;;;;1.77;1.67;;;13.90;49.90;;;;;;4971178;28;20026;-75
2021/05/04 09:31:38;;;;;;;2.25;1.80;;;13.90;47.70;;;;;;4961225;28;20027;-75
2021/05/04 09:34:12;;;;;;;1.73;1.50;;;13.90;48.20;;;;;;4967620;28;20023;-75
2021/05/04 09:36:51;;;;;;;1.83;1.70;;;13.90;49.40;;;;;;4968053;28;20805;-75
2021/05/04 09:39:30;;;;;;;1.80;1.70;;;13.90;48.90;;;;;;4980259;28;20046;-75
2021/05/04 09:41:57;;;;;;;1.88;1.75;;;13.90;48.60;;;;;;4967757;28;20522;-75
2021/05/04 09:44:40;;;;;;;2.67;1.77;;;14.00;48.30;;;;;;4970541;28;20043;-75
2021/05/04 09:47:08;;;;;;;2.58;2.13;;;14.10;50.60;;;;;;4967348;28;20046;-74
2021/05/04 09:49:36;;;;;;;1.98;1.85;;;14.30;52.30;;;;;;4968900;28;20405;-74
2021/05/04 09:55:17;;;;;;;5.18;2.08;;;14.50;48.20;;;;;;4953978;28;20105;-75
2021/05/04 09:57:49;;;;;;;2.40;2.20;;;14.60;49.10;;;;;;4969459;28;20026;-74
2021/05/04 10:00:26;;;;;;;2.95;1.83;;;14.70;48.30;;;;;;4968667;28;20113;-75
2021/05/04 10:02:52;;;;;;;2.67;2.47;;;14.80;47.90;;;;;;4967867;28;20027;-75
2021/05/04 10:05:19;;;;;;;2.40;2.05;;;14.90;50.80;;;;;;4969392;28;20031;-75
2021/05/04 10:07:47;;;;;;;1.95;1.85;;;15.00;46.90;;;;;;4966237;28;20031;-75
2021/05/04 10:10:17;;;;;;;3.97;1.97;;;14.90;48.70;;;;;;4969282;28;20421;-75
2021/05/04 10:12:45;;;;;;;2.65;2.28;;;15.00;49.40;;;;;;4969955;28;20076;-75
2021/05/04 10:15:14;;;;;;;3.55;2.20;;;15.00;50.20;;;;;;4963168;28;20516;-75
2021/05/04 10:17:41;;;;;;;2.80;2.05;;;15.10;48.10;;;;;;4970663;28;20406;-75
2021/05/04 10:20:15;;;;;;;1.88;1.77;;;15.10;47.10;;;;;;4965347;28;20027;-75
2021/05/04 10:22:42;;;;;;;2.13;1.92;;;15.20;48.50;;;;;;4966099;28;20026;-75
2021/05/04 10:25:19;;;;;;;3.55;2.03;;;15.20;48.90;;;;;;4962293;28;20092;-74
2021/05/04 10:27:49;;;;;;;2.08;1.92;;;15.30;50.30;;;;;;4969714;28;20054;-74
2021/05/04 10:30:18;;;;;;;2.10;2.00;;;15.30;51.70;;;;;;4970898;28;20468;-75
2021/05/04 10:32:59;;;;;;;3.15;2.20;;;15.40;50.40;;;;;;4966885;28;20651;-75
2021/05/04 10:35:33;;;;;;;2.47;2.15;;;15.30;48.20;;;;;;4966858;28;20027;-75
2021/05/04 10:38:00;;;;;;;2.63;2.17;;;15.30;50.40;;;;;;4971521;28;20018;-74
2021/05/04 10:40:30;;;;;;;6.15;2.00;;;15.30;47.50;;;;;;4966936;28;20493;-75
2021/05/04 10:42:57;;;;;;;2.92;1.98;;;15.30;49.90;;;;;;4969287;28;20015;-75
2021/05/04 10:45:52;;;;;;;2.28;2.08;;;15.30;47.30;;;;;;4968018;28;20123;-74
2021/05/04 10:48:36;;;;;;;2.58;1.92;;;15.30;48.60;;;;;;4960426;28;20572;-75
2021/05/04 10:51:02;;;;;;;4.20;2.10;;;15.40;48.80;;;;;;4968435;28;20039;-75
2021/05/04 10:53:59;;;;;;;2.50;2.00;;;15.40;49.00;;;;;;4965924;28;20588;-75
2021/05/04 10:56:39;;;;;;;2.40;2.10;;;15.40;48.70;;;;;;4968192;28;20106;-74
2021/05/04 10:59:11;;;;;;;2.00;1.80;;;15.50;48.90;;;;;;4969078;28;20015;-75
2021/05/04 11:01:37;;;;;;;2.35;2.15;;;15.50;48.80;;;;;;4967102;28;20525;-75
2021/05/04 11:04:05;;;;;;;2.30;1.95;;;15.50;47.80;;;;;;4968699;28;20527;-74
2021/05/04 11:06:31;;;;;;;;;;;15.60;49.00;;;;;;4968855;28;20027;-75
2021/05/04 11:08:57;;;;;;;1.52;1.50;;;15.70;49.60;;;;;;4969130;28;20395;-75
2021/05/04 11:14:06;;;;;;;2.30;2.10;;;15.80;48.50;;;;;;4968580;28;20090;-74
2021/05/04 11:16:32;;;;;;;2.33;2.03;;;15.90;48.70;;;;;;4965952;28;20122;-74
2021/05/04 11:19:09;;;;;;;2.65;2.08;;;16.00;49.40;;;;;;4966035;28;20027;-74
2021/05/04 11:21:48;;;;;;;2.20;1.98;;;16.10;48.70;;;;;;4963177;28;20018;-75
2021/05/04 11:24:22;;;;;;;3.83;2.00;;;16.20;46.60;;;;;;4963582;28;20030;-75
2021/05/04 11:26:56;;;;;;;2.13;1.73;;;16.20;47.50;;;;;;4968102;28;20154;-75
2021/05/04 11:29:37;;;;;;;2.10;2.00;;;16.20;46.40;;;;;;4965831;28;20023;-75
2021/05/04 11:32:18;;;;;;;2.22;1.88;;;16.20;49.00;;;;;;4964385;28;20089;-75
2021/05/04 11:34:46;;;;;;;2.15;1.70;;;16.20;50.10;;;;;;4963616;28;20517;-74
2021/05/04 11:37:22;;;;;;;;;;;16.30;47.30;;;;;;4968120;28;20517;-75
2021/05/04 11:39:51;;;;;;;1.50;1.40;;;16.30;46.00;;;;;;4970288;28;19912;-74
2021/05/04 11:42:18;;;;;;;2.90;1.80;;;16.20;44.90;;;;;;4968352;28;20027;-72
2021/05/04 11:44:44;;;;;;;1.67;1.58;;;16.20;43.80;;;;;;4967445;28;20030;-75
2021/05/04 11:47:27;;;;;;;2.03;1.50;;;16.20;43.80;;;;;;4964906;28;20051;-75
2021/05/04 11:50:15;;;;;;;2.13;1.45;;;16.30;45.50;;;;;;4967328;28;20049;-74
2021/05/04 11:52:41;;;;;;;;;;;16.20;44.80;;;;;;4965136;28;20431;-75
2021/05/04 11:55:28;;;;;;;2.28;1.45;;;16.20;42.40;;;;;;4967252;28;20373;-75
2021/05/04 11:58:00;;;;;;;1.75;1.65;;;16.10;41.40;;;;;;4981256;28;20481;-75
2021/05/04 12:00:27;;;;;;;2.17;1.60;;;16.20;42.80;;;;;;4967710;28;20019;-74
2021/05/04 12:02:53;;;;;;;2.10;1.40;;;16.30;46.00;;;;;;4965155;28;20022;-74
2021/05/04 12:05:24;;;;;;;1.60;1.50;;;16.30;41.00;;;;;;4966367;28;20038;-75
2021/05/04 12:07:50;;;;;;;3.35;1.60;;;16.20;42.50;;;;;;4969584;28;20504;-76
2021/05/04 12:10:15;;;;;;;1.67;1.58;;;16.30;42.80;;;;;;4964958;28;20066;-75
2021/05/04 12:12:41;;;;;;;4.03;1.58;;;16.30;43.30;;;;;;4968040;28;20101;-75
2021/05/04 12:15:08;;;;;;;2.55;1.77;;;16.30;41.40;;;;;;4962961;28;20129;-75
2021/05/04 12:17:33;;;;;;;2.38;1.50;;;16.20;40.30;;;;;;4966178;28;20031;-75
2021/05/04 12:20:18;;;;;;;2.28;1.60;;;16.20;41.20;;;;;;4964894;28;20423;-75
2021/05/04 12:22:49;;;;;;;1.70;1.52;;;16.20;42.40;;;;;;4965396;28;20493;-75
2021/05/04 12:25:17;;;;;;;2.97;1.30;;;16.20;42.10;;;;;;4965379;28;20102;-75
2021/05/04 12:27:44;;;;;;;2.63;1.63;;;16.30;41.30;;;;;;4965508;28;20053;-74
2021/05/04 12:30:13;;;;;;;3.00;1.77;;;16.30;41.90;;;;;;4962817;28;20565;-75
2021/05/04 12:32:40;;;;;;;2.17;1.50;;;16.40;42.80;;;;;;4967534;28;20063;-75
2021/05/04 12:38:18;;;;;;;3.97;1.80;;;16.80;41.80;;;;;;4968086;28;20036;-75
2021/05/04 12:41:04;;;;;;;1.75;1.60;;;16.90;43.00;;;;;;4970915;28;20082;-75
2021/05/04 12:43:31;;;;;;;3.63;1.70;;;16.80;40.40;;;;;;4966339;28;20019;-75
2021/05/04 12:46:04;;;;;;;1.98;1.48;;;16.70;41.70;;;;;;4973817;28;20050;-75
2021/05/04 12:48:30;;;;;;;3.67;1.60;;;16.70;41.40;;;;;;4966444;28;20058;-75
2021/05/04 12:51:05;;;;;;;1.60;1.50;;;16.80;40.70;;;;;;4971249;28;20093;-75
2021/05/04 12:53:34;;;;;;;2.35;1.63;;;16.70;40.40;;;;;;4969528;28;20106;-75
2021/05/04 12:56:06;;;;;;;3.78;1.50;;;16.70;41.40;;;;;;4970638;28;20114;-75
2021/05/04 12:58:32;;;;;;;4.80;1.80;;;16.60;39.30;;;;;;4969009;28;20113;-75
2021/05/04 13:01:12;;;;;;;1.70;1.60;;;16.40;39.10;;;;;;4970621;28;20029;-75
2021/05/04 13:03:50;;;;;;;1.52;1.42;;;16.30;39.60;;;;;;4963961;28;20027;-74
2021/05/04 13:06:30;;;;;;;1.83;1.67;;;16.20;39.90;;;;;;4968389;28;20037;-75
2021/05/04 13:12:19;;;;;;;1.98;1.58;;;16.30;39.60;;;;;;4924265;28;20047;-75
2021/05/04 13:30:46;;;;;;;;;;;16.10;39.60;;;;;;4967494;28;20089;-75
2021/05/04 13:33:14;;;;;;;2.92;1.50;;;16.00;37.30;;;;;;4968949;28;19922;-75